sensor_id;sensor_type;location;lat;lon;timestamp;P1;durP1;ratioP1;P2;durP2;ratioP2
9761;SDS011;4920;49.594;11.022;2023-01-15T00:02:25;1.43;;;1.23;;
9761;SDS011;4920;49.594;11.022;2023-01-15T00:04:54;2.73;;;1.30;;
9761;SDS011;4920;49.594;11.022;2023-01-15T00:07:25;3.10;;;1.37;;
9761;SDS011;4920;49.594;11.022;2023-01-15T00:09:53;2.40;;;1.30;;
9761;SDS011;4920;49.594;11.022;2023-01-15T00:12:22;2.43;;;1.37;;
9761;SDS011;4920;49.594;11.022;2023-01-15T00:14:51;2.50;;;1.40;;
9761;SDS011;4920;49.594;11.022;2023-01-15T00:17:20;2.13;;;1.20;;
9761;SDS011;4920;49.594;11.022;2023-01-15T00:19:49;2.77;;;1.40;;
9761;SDS011;4920;49.594;11.022;2023-01-15T00:22:18;3.83;;;1.27;;
9761;SDS011;4920;49.594;11.022;2023-01-15T00:24:48;4.03;;;1.40;;
9761;SDS011;4920;49.594;11.022;2023-01-15T00:27:35;2.63;;;1.50;;
9761;SDS011;4920;49.594;11.022;2023-01-15T00:30:08;2.20;;;1.30;;
9761;SDS011;4920;49.594;11.022;2023-01-15T00:32:39;3.93;;;1.40;;
9761;SDS011;4920;49.594;11.022;2023-01-15T00:35:10;2.13;;;1.30;;
9761;SDS011;4920;49.594;11.022;2023-01-15T00:37:40;2.10;;;1.30;;
9761;SDS011;4920;49.594;11.022;2023-01-15T00:40:12;2.87;;;1.37;;
9761;SDS011;4920;49.594;11.022;2023-01-15T00:42:43;2.30;;;1.30;;
9761;SDS011;4920;49.594;11.022;2023-01-15T00:45:20;1.97;;;1.30;;
9761;SDS011;4920;49.594;11.022;2023-01-15T00:47:49;2.33;;;1.43;;
9761;SDS011;4920;49.594;11.022;2023-01-15T00:50:19;1.97;;;1.33;;
9761;SDS011;4920;49.594;11.022;2023-01-15T00:52:48;2.00;;;1.37;;
9761;SDS011;4920;49.594;11.022;2023-01-15T00:55:20;2.53;;;1.30;;
9761;SDS011;4920;49.594;11.022;2023-01-15T00:57:51;1.33;;;1.20;;
9761;SDS011;4920;49.594;11.022;2023-01-15T01:00:20;1.73;;;1.27;;
9761;SDS011;4920;49.594;11.022;2023-01-15T01:02:50;1.60;;;1.07;;
9761;SDS011;4920;49.594;11.022;2023-01-15T01:05:18;1.97;;;1.27;;
9761;SDS011;4920;49.594;11.022;2023-01-15T01:07:47;1.57;;;1.17;;
9761;SDS011;4920;49.594;11.022;2023-01-15T01:10:16;2.27;;;1.40;;
9761;SDS011;4920;49.594;11.022;2023-01-15T01:12:47;2.80;;;1.10;;
9761;SDS011;4920;49.594;11.022;2023-01-15T01:15:17;1.23;;;1.10;;
9761;SDS011;4920;49.594;11.022;2023-01-15T01:17:46;3.10;;;1.20;;
9761;SDS011;4920;49.594;11.022;2023-01-15T01:20:16;3.10;;;1.30;;
9761;SDS011;4920;49.594;11.022;2023-01-15T01:22:47;1.87;;;1.20;;
9761;SDS011;4920;49.594;11.022;2023-01-15T01:25:16;3.93;;;1.30;;
9761;SDS011;4920;49.594;11.022;2023-01-15T01:27:46;1.67;;;1.10;;
9761;SDS011;4920;49.594;11.022;2023-01-15T01:30:16;2.10;;;1.07;;
9761;SDS011;4920;49.594;11.022;2023-01-15T01:32:45;2.57;;;1.20;;
9761;SDS011;4920;49.594;11.022;2023-01-15T01:35:14;2.27;;;1.20;;
9761;SDS011;4920;49.594;11.022;2023-01-15T01:37:47;2.07;;;1.17;;
9761;SDS011;4920;49.594;11.022;2023-01-15T01:40:17;1.77;;;1.10;;
9761;SDS011;4920;49.594;11.022;2023-01-15T01:42:48;2.07;;;1.10;;
9761;SDS011;4920;49.594;11.022;2023-01-15T01:45:22;2.53;;;1.17;;
9761;SDS011;4920;49.594;11.022;2023-01-15T01:47:54;2.30;;;1.00;;
9761;SDS011;4920;49.594;11.022;2023-01-15T01:50:26;1.70;;;1.10;;
9761;SDS011;4920;49.594;11.022;2023-01-15T01:52:57;1.67;;;1.00;;
9761;SDS011;4920;49.594;11.022;2023-01-15T01:55:30;2.47;;;1.00;;
9761;SDS011;4920;49.594;11.022;2023-01-15T01:58:04;1.40;;;1.00;;
9761;SDS011;4920;49.594;11.022;2023-01-15T02:00:37;1.10;;;0.90;;
9761;SDS011;4920;49.594;11.022;2023-01-15T02:03:10;2.30;;;1.30;;
9761;SDS011;4920;49.594;11.022;2023-01-15T02:05:42;2.10;;;0.90;;
9761;SDS011;4920;49.594;11.022;2023-01-15T02:08:16;1.43;;;0.90;;
9761;SDS011;4920;49.594;11.022;2023-01-15T02:10:46;1.83;;;1.00;;
9761;SDS011;4920;49.594;11.022;2023-01-15T02:13:24;0.83;;;0.70;;
9761;SDS011;4920;49.594;11.022;2023-01-15T02:15:59;1.10;;;0.80;;
9761;SDS011;4920;49.594;11.022;2023-01-15T02:18:35;1.73;;;0.90;;
9761;SDS011;4920;49.594;11.022;2023-01-15T02:21:11;1.43;;;0.80;;
9761;SDS011;4920;49.594;11.022;2023-01-15T02:24:01;1.03;;;0.80;;
9761;SDS011;4920;49.594;11.022;2023-01-15T02:26:53;1.50;;;0.80;;
9761;SDS011;4920;49.594;11.022;2023-01-15T02:29:33;1.63;;;0.83;;
9761;SDS011;4920;49.594;11.022;2023-01-15T02:32:12;0.90;;;0.80;;
9761;SDS011;4920;49.594;11.022;2023-01-15T02:34:45;1.57;;;0.83;;
9761;SDS011;4920;49.594;11.022;2023-01-15T02:37:21;1.00;;;0.90;;
9761;SDS011;4920;49.594;11.022;2023-01-15T02:39:53;0.73;;;0.70;;
9761;SDS011;4920;49.594;11.022;2023-01-15T02:42:27;1.67;;;0.60;;
9761;SDS011;4920;49.594;11.022;2023-01-15T02:44:58;0.77;;;0.70;;
9761;SDS011;4920;49.594;11.022;2023-01-15T02:47:32;1.80;;;0.90;;
9761;SDS011;4920;49.594;11.022;2023-01-15T02:50:06;1.80;;;0.70;;
9761;SDS011;4920;49.594;11.022;2023-01-15T02:52:41;0.90;;;0.60;;
9761;SDS011;4920;49.594;11.022;2023-01-15T02:55:17;0.60;;;0.60;;
9761;SDS011;4920;49.594;11.022;2023-01-15T02:57:52;1.60;;;0.80;;
9761;SDS011;4920;49.594;11.022;2023-01-15T03:00:25;0.87;;;0.70;;
9761;SDS011;4920;49.594;11.022;2023-01-15T03:02:58;1.00;;;0.70;;
9761;SDS011;4920;49.594;11.022;2023-01-15T03:05:31;1.67;;;0.80;;
9761;SDS011;4920;49.594;11.022;2023-01-15T03:08:07;1.50;;;0.73;;
9761;SDS011;4920;49.594;11.022;2023-01-15T03:10:45;0.90;;;0.60;;
9761;SDS011;4920;49.594;11.022;2023-01-15T03:13:22;0.60;;;0.60;;
9761;SDS011;4920;49.594;11.022;2023-01-15T03:15:56;1.27;;;0.70;;
9761;SDS011;4920;49.594;11.022;2023-01-15T03:18:46;0.80;;;0.60;;
9761;SDS011;4920;49.594;11.022;2023-01-15T03:21:20;0.90;;;0.70;;
9761;SDS011;4920;49.594;11.022;2023-01-15T03:23:53;0.87;;;0.70;;
9761;SDS011;4920;49.594;11.022;2023-01-15T03:26:28;2.10;;;0.73;;
9761;SDS011;4920;49.594;11.022;2023-01-15T03:28:59;1.17;;;0.73;;
9761;SDS011;4920;49.594;11.022;2023-01-15T03:31:29;0.73;;;0.57;;
9761;SDS011;4920;49.594;11.022;2023-01-15T03:33:59;1.17;;;0.70;;
9761;SDS011;4920;49.594;11.022;2023-01-15T03:36:29;1.43;;;0.80;;
9761;SDS011;4920;49.594;11.022;2023-01-15T03:39:00;0.70;;;0.70;;
9761;SDS011;4920;49.594;11.022;2023-01-15T03:41:49;1.00;;;0.63;;
9761;SDS011;4920;49.594;11.022;2023-01-15T03:44:30;0.73;;;0.63;;
9761;SDS011;4920;49.594;11.022;2023-01-15T03:47:13;1.33;;;0.80;;
9761;SDS011;4920;49.594;11.022;2023-01-15T03:49:55;2.50;;;0.77;;
9761;SDS011;4920;49.594;11.022;2023-01-15T03:52:41;0.90;;;0.70;;
9761;SDS011;4920;49.594;11.022;2023-01-15T03:55:14;1.20;;;0.60;;
9761;SDS011;4920;49.594;11.022;2023-01-15T03:57:55;0.83;;;0.80;;
9761;SDS011;4920;49.594;11.022;2023-01-15T04:00:31;0.60;;;0.60;;
9761;SDS011;4920;49.594;11.022;2023-01-15T04:03:04;0.90;;;0.57;;
9761;SDS011;4920;49.594;11.022;2023-01-15T04:05:36;0.57;;;0.57;;
9761;SDS011;4920;49.594;11.022;2023-01-15T04:08:07;0.60;;;0.60;;
9761;SDS011;4920;49.594;11.022;2023-01-15T04:10:37;0.73;;;0.73;;
9761;SDS011;4920;49.594;11.022;2023-01-15T04:13:17;1.33;;;0.80;;
9761;SDS011;4920;49.594;11.022;2023-01-15T04:15:47;1.57;;;0.80;;
9761;SDS011;4920;49.594;11.022;2023-01-15T04:18:17;1.40;;;0.70;;
9761;SDS011;4920;49.594;11.022;2023-01-15T04:20:46;0.70;;;0.70;;
9761;SDS011;4920;49.594;11.022;2023-01-15T04:23:15;2.27;;;0.70;;
9761;SDS011;4920;49.594;11.022;2023-01-15T04:25:45;0.57;;;0.57;;
9761;SDS011;4920;49.594;11.022;2023-01-15T04:28:13;2.00;;;0.63;;
9761;SDS011;4920;49.594;11.022;2023-01-15T04:30:43;1.93;;;0.70;;
9761;SDS011;4920;49.594;11.022;2023-01-15T04:33:13;0.63;;;0.63;;
9761;SDS011;4920;49.594;11.022;2023-01-15T04:35:42;0.70;;;0.70;;
9761;SDS011;4920;49.594;11.022;2023-01-15T04:38:13;0.97;;;0.60;;
9761;SDS011;4920;49.594;11.022;2023-01-15T04:40:43;0.77;;;0.60;;
9761;SDS011;4920;49.594;11.022;2023-01-15T04:43:30;0.90;;;0.70;;
9761;SDS011;4920;49.594;11.022;2023-01-15T04:46:19;1.27;;;0.70;;
9761;SDS011;4920;49.594;11.022;2023-01-15T04:48:50;2.47;;;0.70;;
9761;SDS011;4920;49.594;11.022;2023-01-15T04:51:19;3.37;;;0.90;;
9761;SDS011;4920;49.594;11.022;2023-01-15T04:53:48;0.70;;;0.70;;
9761;SDS011;4920;49.594;11.022;2023-01-15T04:56:20;1.47;;;0.70;;
9761;SDS011;4920;49.594;11.022;2023-01-15T04:58:49;0.60;;;0.53;;
9761;SDS011;4920;49.594;11.022;2023-01-15T05:01:18;0.97;;;0.70;;
9761;SDS011;4920;49.594;11.022;2023-01-15T05:03:47;1.43;;;0.80;;
9761;SDS011;4920;49.594;11.022;2023-01-15T05:06:17;1.40;;;0.80;;
9761;SDS011;4920;49.594;11.022;2023-01-15T05:08:46;0.93;;;0.60;;
9761;SDS011;4920;49.594;11.022;2023-01-15T05:11:15;0.97;;;0.70;;
9761;SDS011;4920;49.594;11.022;2023-01-15T05:13:44;1.00;;;0.80;;
9761;SDS011;4920;49.594;11.022;2023-01-15T05:16:16;1.40;;;0.60;;
9761;SDS011;4920;49.594;11.022;2023-01-15T05:18:46;0.80;;;0.60;;
9761;SDS011;4920;49.594;11.022;2023-01-15T05:21:16;0.80;;;0.73;;
9761;SDS011;4920;49.594;11.022;2023-01-15T05:23:48;0.60;;;0.60;;
9761;SDS011;4920;49.594;11.022;2023-01-15T05:26:17;0.90;;;0.70;;
9761;SDS011;4920;49.594;11.022;2023-01-15T05:28:47;1.60;;;0.70;;
9761;SDS011;4920;49.594;11.022;2023-01-15T05:31:17;1.47;;;0.70;;
9761;SDS011;4920;49.594;11.022;2023-01-15T05:33:46;2.00;;;0.70;;
9761;SDS011;4920;49.594;11.022;2023-01-15T05:36:16;1.57;;;0.60;;
9761;SDS011;4920;49.594;11.022;2023-01-15T05:38:50;0.73;;;0.60;;
9761;SDS011;4920;49.594;11.022;2023-01-15T05:41:20;1.37;;;0.70;;
9761;SDS011;4920;49.594;11.022;2023-01-15T05:44:08;0.60;;;0.60;;
9761;SDS011;4920;49.594;11.022;2023-01-15T05:46:38;0.80;;;0.70;;
9761;SDS011;4920;49.594;11.022;2023-01-15T05:49:10;2.07;;;0.80;;
9761;SDS011;4920;49.594;11.022;2023-01-15T05:51:42;0.87;;;0.70;;
9761;SDS011;4920;49.594;11.022;2023-01-15T05:54:12;1.53;;;0.70;;
9761;SDS011;4920;49.594;11.022;2023-01-15T05:56:41;1.03;;;0.60;;
9761;SDS011;4920;49.594;11.022;2023-01-15T05:59:11;1.20;;;0.70;;
9761;SDS011;4920;49.594;11.022;2023-01-15T06:01:41;1.47;;;0.60;;
9761;SDS011;4920;49.594;11.022;2023-01-15T06:04:10;1.00;;;0.60;;
9761;SDS011;4920;49.594;11.022;2023-01-15T06:06:42;1.07;;;0.70;;
9761;SDS011;4920;49.594;11.022;2023-01-15T06:09:11;1.10;;;0.70;;
9761;SDS011;4920;49.594;11.022;2023-01-15T06:11:40;1.33;;;0.80;;
9761;SDS011;4920;49.594;11.022;2023-01-15T06:14:09;2.03;;;0.80;;
9761;SDS011;4920;49.594;11.022;2023-01-15T06:16:39;1.37;;;0.70;;
9761;SDS011;4920;49.594;11.022;2023-01-15T06:19:08;3.63;;;0.77;;
9761;SDS011;4920;49.594;11.022;2023-01-15T06:21:39;3.57;;;0.90;;
9761;SDS011;4920;49.594;11.022;2023-01-15T06:24:10;0.93;;;0.57;;
9761;SDS011;4920;49.594;11.022;2023-01-15T06:26:42;0.60;;;0.50;;
9761;SDS011;4920;49.594;11.022;2023-01-15T06:29:11;1.23;;;0.53;;
9761;SDS011;4920;49.594;11.022;2023-01-15T06:31:45;0.40;;;0.40;;
9761;SDS011;4920;49.594;11.022;2023-01-15T06:34:15;1.17;;;0.57;;
9761;SDS011;4920;49.594;11.022;2023-01-15T06:36:45;0.80;;;0.60;;
9761;SDS011;4920;49.594;11.022;2023-01-15T06:39:14;0.47;;;0.47;;
9761;SDS011;4920;49.594;11.022;2023-01-15T06:41:43;1.67;;;0.50;;
9761;SDS011;4920;49.594;11.022;2023-01-15T06:44:30;0.70;;;0.50;;
9761;SDS011;4920;49.594;11.022;2023-01-15T06:47:17;0.40;;;0.40;;
9761;SDS011;4920;49.594;11.022;2023-01-15T06:49:49;0.40;;;0.40;;
9761;SDS011;4920;49.594;11.022;2023-01-15T06:52:21;0.50;;;0.50;;
9761;SDS011;4920;49.594;11.022;2023-01-15T06:54:50;0.50;;;0.50;;
9761;SDS011;4920;49.594;11.022;2023-01-15T06:57:19;0.43;;;0.43;;
9761;SDS011;4920;49.594;11.022;2023-01-15T06:59:49;0.50;;;0.50;;
9761;SDS011;4920;49.594;11.022;2023-01-15T07:02:18;0.70;;;0.60;;
9761;SDS011;4920;49.594;11.022;2023-01-15T07:04:48;0.50;;;0.50;;
9761;SDS011;4920;49.594;11.022;2023-01-15T07:07:18;2.20;;;0.57;;
9761;SDS011;4920;49.594;11.022;2023-01-15T07:09:49;0.60;;;0.60;;
9761;SDS011;4920;49.594;11.022;2023-01-15T07:12:17;1.07;;;0.60;;
9761;SDS011;4920;49.594;11.022;2023-01-15T07:14:46;2.30;;;0.70;;
9761;SDS011;4920;49.594;11.022;2023-01-15T07:17:15;0.60;;;0.60;;
9761;SDS011;4920;49.594;11.022;2023-01-15T07:19:44;0.70;;;0.60;;
9761;SDS011;4920;49.594;11.022;2023-01-15T07:22:13;1.30;;;0.70;;
9761;SDS011;4920;49.594;11.022;2023-01-15T07:24:44;0.60;;;0.60;;
9761;SDS011;4920;49.594;11.022;2023-01-15T07:27:13;0.70;;;0.70;;
9761;SDS011;4920;49.594;11.022;2023-01-15T07:29:41;0.50;;;0.50;;
9761;SDS011;4920;49.594;11.022;2023-01-15T07:32:10;0.50;;;0.50;;
9761;SDS011;4920;49.594;11.022;2023-01-15T07:34:39;6.03;;;0.80;;
9761;SDS011;4920;49.594;11.022;2023-01-15T07:37:08;0.70;;;0.70;;
9761;SDS011;4920;49.594;11.022;2023-01-15T07:39:37;0.93;;;0.50;;
9761;SDS011;4920;49.594;11.022;2023-01-15T07:42:09;0.50;;;0.50;;
9761;SDS011;4920;49.594;11.022;2023-01-15T07:44:55;0.40;;;0.40;;
9761;SDS011;4920;49.594;11.022;2023-01-15T07:47:41;1.63;;;0.50;;
9761;SDS011;4920;49.594;11.022;2023-01-15T07:50:27;0.40;;;0.40;;
9761;SDS011;4920;49.594;11.022;2023-01-15T07:52:56;0.60;;;0.60;;
9761;SDS011;4920;49.594;11.022;2023-01-15T07:55:25;1.70;;;0.60;;
9761;SDS011;4920;49.594;11.022;2023-01-15T07:57:55;1.27;;;0.60;;
9761;SDS011;4920;49.594;11.022;2023-01-15T08:00:24;0.60;;;0.60;;
9761;SDS011;4920;49.594;11.022;2023-01-15T08:02:53;0.90;;;0.80;;
9761;SDS011;4920;49.594;11.022;2023-01-15T08:05:22;1.10;;;0.90;;
9761;SDS011;4920;49.594;11.022;2023-01-15T08:07:50;1.87;;;0.93;;
9761;SDS011;4920;49.594;11.022;2023-01-15T08:10:19;0.93;;;0.87;;
9761;SDS011;4920;49.594;11.022;2023-01-15T08:12:48;1.50;;;1.10;;
9761;SDS011;4920;49.594;11.022;2023-01-15T08:15:38;1.00;;;0.80;;
9761;SDS011;4920;49.594;11.022;2023-01-15T08:18:09;1.73;;;0.80;;
9761;SDS011;4920;49.594;11.022;2023-01-15T08:20:38;1.00;;;0.90;;
9761;SDS011;4920;49.594;11.022;2023-01-15T08:23:07;1.37;;;0.97;;
9761;SDS011;4920;49.594;11.022;2023-01-15T08:25:36;0.70;;;0.70;;
9761;SDS011;4920;49.594;11.022;2023-01-15T08:28:05;1.13;;;0.73;;
9761;SDS011;4920;49.594;11.022;2023-01-15T08:30:34;1.03;;;0.70;;
9761;SDS011;4920;49.594;11.022;2023-01-15T08:33:04;1.77;;;0.83;;
9761;SDS011;4920;49.594;11.022;2023-01-15T08:35:33;0.93;;;0.80;;
9761;SDS011;4920;49.594;11.022;2023-01-15T08:38:05;1.57;;;0.80;;
9761;SDS011;4920;49.594;11.022;2023-01-15T08:40:34;0.93;;;0.83;;
9761;SDS011;4920;49.594;11.022;2023-01-15T08:43:23;0.83;;;0.77;;
9761;SDS011;4920;49.594;11.022;2023-01-15T08:45:54;0.73;;;0.73;;
9761;SDS011;4920;49.594;11.022;2023-01-15T08:48:26;0.70;;;0.70;;
9761;SDS011;4920;49.594;11.022;2023-01-15T08:50:57;1.07;;;0.70;;
9761;SDS011;4920;49.594;11.022;2023-01-15T08:53:26;0.80;;;0.70;;
9761;SDS011;4920;49.594;11.022;2023-01-15T08:55:55;1.23;;;0.83;;
9761;SDS011;4920;49.594;11.022;2023-01-15T08:58:26;1.33;;;1.10;;
9761;SDS011;4920;49.594;11.022;2023-01-15T09:01:02;1.43;;;0.90;;
9761;SDS011;4920;49.594;11.022;2023-01-15T09:03:33;1.80;;;0.90;;
9761;SDS011;4920;49.594;11.022;2023-01-15T09:06:03;3.10;;;0.87;;
9761;SDS011;4920;49.594;11.022;2023-01-15T09:08:32;2.47;;;1.00;;
9761;SDS011;4920;49.594;11.022;2023-01-15T09:11:01;2.27;;;1.00;;
9761;SDS011;4920;49.594;11.022;2023-01-15T09:13:31;3.47;;;1.03;;
9761;SDS011;4920;49.594;11.022;2023-01-15T09:16:01;1.87;;;1.00;;
9761;SDS011;4920;49.594;11.022;2023-01-15T09:18:32;2.87;;;1.00;;
9761;SDS011;4920;49.594;11.022;2023-01-15T09:21:03;2.63;;;1.10;;
9761;SDS011;4920;49.594;11.022;2023-01-15T09:23:32;2.63;;;0.83;;
9761;SDS011;4920;49.594;11.022;2023-01-15T09:26:03;1.30;;;0.90;;
9761;SDS011;4920;49.594;11.022;2023-01-15T09:28:34;0.90;;;0.80;;
9761;SDS011;4920;49.594;11.022;2023-01-15T09:31:03;0.90;;;0.80;;
9761;SDS011;4920;49.594;11.022;2023-01-15T09:33:33;0.90;;;0.77;;
9761;SDS011;4920;49.594;11.022;2023-01-15T09:36:02;1.77;;;0.80;;
9761;SDS011;4920;49.594;11.022;2023-01-15T09:38:32;0.70;;;0.70;;
9761;SDS011;4920;49.594;11.022;2023-01-15T09:41:02;0.87;;;0.63;;
9761;SDS011;4920;49.594;11.022;2023-01-15T09:44:00;1.93;;;0.80;;
9761;SDS011;4920;49.594;11.022;2023-01-15T09:46:37;1.57;;;0.90;;
9761;SDS011;4920;49.594;11.022;2023-01-15T09:49:19;1.27;;;0.70;;
9761;SDS011;4920;49.594;11.022;2023-01-15T09:52:02;0.80;;;0.80;;
9761;SDS011;4920;49.594;11.022;2023-01-15T09:54:44;1.43;;;0.80;;
9761;SDS011;4920;49.594;11.022;2023-01-15T09:57:21;1.00;;;0.80;;
9761;SDS011;4920;49.594;11.022;2023-01-15T09:59:51;0.70;;;0.70;;
9761;SDS011;4920;49.594;11.022;2023-01-15T10:02:39;1.40;;;0.93;;
9761;SDS011;4920;49.594;11.022;2023-01-15T10:05:16;1.10;;;0.87;;
9761;SDS011;4920;49.594;11.022;2023-01-15T10:07:52;1.83;;;1.20;;
9761;SDS011;4920;49.594;11.022;2023-01-15T10:10:27;2.63;;;1.73;;
9761;SDS011;4920;49.594;11.022;2023-01-15T10:13:01;4.67;;;4.27;;
9761;SDS011;4920;49.594;11.022;2023-01-15T10:15:37;21.30;;;14.37;;
9761;SDS011;4920;49.594;11.022;2023-01-15T10:18:10;8.33;;;7.50;;
9761;SDS011;4920;49.594;11.022;2023-01-15T10:20:59;21.03;;;15.07;;
9761;SDS011;4920;49.594;11.022;2023-01-15T10:23:39;3.37;;;2.30;;
9761;SDS011;4920;49.594;11.022;2023-01-15T10:26:21;2.30;;;1.20;;
9761;SDS011;4920;49.594;11.022;2023-01-15T10:28:59;2.03;;;1.20;;
9761;SDS011;4920;49.594;11.022;2023-01-15T10:31:44;2.07;;;1.73;;
9761;SDS011;4920;49.594;11.022;2023-01-15T10:34:23;1.33;;;1.00;;
9761;SDS011;4920;49.594;11.022;2023-01-15T10:37:11;2.33;;;1.57;;
9761;SDS011;4920;49.594;11.022;2023-01-15T10:39:46;2.90;;;1.33;;
9761;SDS011;4920;49.594;11.022;2023-01-15T10:42:26;1.00;;;0.80;;
9761;SDS011;4920;49.594;11.022;2023-01-15T10:45:03;3.50;;;2.10;;
9761;SDS011;4920;49.594;11.022;2023-01-15T10:47:38;1.40;;;1.30;;
9761;SDS011;4920;49.594;11.022;2023-01-15T10:50:12;1.20;;;1.10;;
9761;SDS011;4920;49.594;11.022;2023-01-15T10:52:46;1.40;;;1.20;;
9761;SDS011;4920;49.594;11.022;2023-01-15T10:55:19;1.50;;;1.40;;
9761;SDS011;4920;49.594;11.022;2023-01-15T10:57:54;3.90;;;3.60;;
9761;SDS011;4920;49.594;11.022;2023-01-15T11:00:36;3.70;;;3.30;;
9761;SDS011;4920;49.594;11.022;2023-01-15T11:03:09;2.13;;;1.40;;
9761;SDS011;4920;49.594;11.022;2023-01-15T11:05:42;2.03;;;1.27;;
9761;SDS011;4920;49.594;11.022;2023-01-15T11:08:15;1.70;;;1.47;;
9761;SDS011;4920;49.594;11.022;2023-01-15T11:11:18;1.40;;;0.90;;
9761;SDS011;4920;49.594;11.022;2023-01-15T11:14:10;1.53;;;0.93;;
9761;SDS011;4920;49.594;11.022;2023-01-15T11:16:56;2.13;;;1.20;;
9761;SDS011;4920;49.594;11.022;2023-01-15T11:19:42;2.03;;;0.90;;
9761;SDS011;4920;49.594;11.022;2023-01-15T11:22:12;1.20;;;1.10;;
9761;SDS011;4920;49.594;11.022;2023-01-15T11:24:46;1.07;;;0.87;;
9761;SDS011;4920;49.594;11.022;2023-01-15T11:27:20;2.23;;;1.20;;
9761;SDS011;4920;49.594;11.022;2023-01-15T11:29:52;3.80;;;1.90;;
9761;SDS011;4920;49.594;11.022;2023-01-15T11:32:24;2.33;;;1.90;;
9761;SDS011;4920;49.594;11.022;2023-01-15T11:34:57;1.87;;;1.60;;
9761;SDS011;4920;49.594;11.022;2023-01-15T11:37:27;1.50;;;1.40;;
9761;SDS011;4920;49.594;11.022;2023-01-15T11:39:59;1.70;;;1.40;;
9761;SDS011;4920;49.594;11.022;2023-01-15T11:42:44;1.97;;;1.50;;
9761;SDS011;4920;49.594;11.022;2023-01-15T11:45:27;3.03;;;2.30;;
9761;SDS011;4920;49.594;11.022;2023-01-15T11:48:14;1.93;;;1.73;;
9761;SDS011;4920;49.594;11.022;2023-01-15T11:51:04;3.10;;;2.37;;
9761;SDS011;4920;49.594;11.022;2023-01-15T11:53:38;1.90;;;1.70;;
9761;SDS011;4920;49.594;11.022;2023-01-15T11:56:12;3.03;;;2.40;;
9761;SDS011;4920;49.594;11.022;2023-01-15T11:58:45;8.40;;;3.87;;
9761;SDS011;4920;49.594;11.022;2023-01-15T12:01:20;5.27;;;3.20;;
9761;SDS011;4920;49.594;11.022;2023-01-15T12:03:51;2.30;;;2.10;;
9761;SDS011;4920;49.594;11.022;2023-01-15T12:06:21;2.60;;;2.10;;
9761;SDS011;4920;49.594;11.022;2023-01-15T12:08:51;2.37;;;2.13;;
9761;SDS011;4920;49.594;11.022;2023-01-15T12:11:40;3.83;;;2.30;;
9761;SDS011;4920;49.594;11.022;2023-01-15T12:14:28;2.43;;;2.00;;
9761;SDS011;4920;49.594;11.022;2023-01-15T12:17:13;5.77;;;2.93;;
9761;SDS011;4920;49.594;11.022;2023-01-15T12:19:53;4.00;;;2.60;;
9761;SDS011;4920;49.594;11.022;2023-01-15T12:22:33;3.87;;;2.73;;
9761;SDS011;4920;49.594;11.022;2023-01-15T12:28:11;1.33;;;1.17;;
9761;SDS011;4920;49.594;11.022;2023-01-15T12:30:44;2.57;;;1.20;;
9761;SDS011;4920;49.594;11.022;2023-01-15T12:33:23;1.10;;;1.00;;
9761;SDS011;4920;49.594;11.022;2023-01-15T12:36:05;1.47;;;1.13;;
9761;SDS011;4920;49.594;11.022;2023-01-15T12:38:41;1.33;;;1.03;;
9761;SDS011;4920;49.594;11.022;2023-01-15T12:41:15;1.20;;;1.10;;
9761;SDS011;4920;49.594;11.022;2023-01-15T12:43:50;2.20;;;1.10;;
9761;SDS011;4920;49.594;11.022;2023-01-15T12:46:41;2.37;;;1.20;;
9761;SDS011;4920;49.594;11.022;2023-01-15T12:49:15;2.87;;;1.23;;
9761;SDS011;4920;49.594;11.022;2023-01-15T12:51:53;2.20;;;1.03;;
9761;SDS011;4920;49.594;11.022;2023-01-15T12:54:29;1.47;;;1.00;;
9761;SDS011;4920;49.594;11.022;2023-01-15T12:57:04;0.83;;;0.80;;
9761;SDS011;4920;49.594;11.022;2023-01-15T12:59:43;1.33;;;0.80;;
9761;SDS011;4920;49.594;11.022;2023-01-15T13:02:16;1.27;;;1.00;;
9761;SDS011;4920;49.594;11.022;2023-01-15T13:04:50;1.03;;;0.73;;
9761;SDS011;4920;49.594;11.022;2023-01-15T13:07:24;2.40;;;1.37;;
9761;SDS011;4920;49.594;11.022;2023-01-15T13:10:00;2.60;;;1.20;;
9761;SDS011;4920;49.594;11.022;2023-01-15T13:12:34;2.47;;;0.90;;
9761;SDS011;4920;49.594;11.022;2023-01-15T13:15:05;1.10;;;0.90;;
9761;SDS011;4920;49.594;11.022;2023-01-15T13:17:35;1.00;;;0.90;;
9761;SDS011;4920;49.594;11.022;2023-01-15T13:20:25;1.10;;;0.93;;
9761;SDS011;4920;49.594;11.022;2023-01-15T13:23:06;1.00;;;0.80;;
9761;SDS011;4920;49.594;11.022;2023-01-15T13:25:40;1.20;;;0.97;;
9761;SDS011;4920;49.594;11.022;2023-01-15T13:28:39;0.90;;;0.90;;
9761;SDS011;4920;49.594;11.022;2023-01-15T13:31:33;2.07;;;1.00;;
9761;SDS011;4920;49.594;11.022;2023-01-15T13:34:13;2.83;;;1.20;;
9761;SDS011;4920;49.594;11.022;2023-01-15T13:36:50;2.03;;;1.00;;
9761;SDS011;4920;49.594;11.022;2023-01-15T13:39:22;2.10;;;1.20;;
9761;SDS011;4920;49.594;11.022;2023-01-15T13:41:55;1.53;;;1.30;;
9761;SDS011;4920;49.594;11.022;2023-01-15T13:44:44;1.40;;;1.30;;
9761;SDS011;4920;49.594;11.022;2023-01-15T13:47:19;2.07;;;1.17;;
9761;SDS011;4920;49.594;11.022;2023-01-15T13:49:51;2.50;;;1.10;;
9761;SDS011;4920;49.594;11.022;2023-01-15T13:52:25;1.83;;;1.10;;
9761;SDS011;4920;49.594;11.022;2023-01-15T13:54:55;2.43;;;1.00;;
9761;SDS011;4920;49.594;11.022;2023-01-15T13:57:31;1.33;;;0.80;;
9761;SDS011;4920;49.594;11.022;2023-01-15T14:00:02;2.47;;;0.90;;
9761;SDS011;4920;49.594;11.022;2023-01-15T14:02:39;1.90;;;0.90;;
9761;SDS011;4920;49.594;11.022;2023-01-15T14:05:24;1.87;;;0.90;;
9761;SDS011;4920;49.594;11.022;2023-01-15T14:07:56;2.03;;;0.90;;
9761;SDS011;4920;49.594;11.022;2023-01-15T14:10:34;2.47;;;0.90;;
9761;SDS011;4920;49.594;11.022;2023-01-15T14:13:11;3.30;;;1.00;;
9761;SDS011;4920;49.594;11.022;2023-01-15T14:16:02;1.47;;;0.97;;
9761;SDS011;4920;49.594;11.022;2023-01-15T14:18:43;0.87;;;0.83;;
9761;SDS011;4920;49.594;11.022;2023-01-15T14:21:35;1.43;;;1.23;;
9761;SDS011;4920;49.594;11.022;2023-01-15T14:24:16;1.77;;;1.20;;
9761;SDS011;4920;49.594;11.022;2023-01-15T14:27:03;1.80;;;1.20;;
9761;SDS011;4920;49.594;11.022;2023-01-15T14:29:49;3.37;;;1.47;;
9761;SDS011;4920;49.594;11.022;2023-01-15T14:32:40;3.00;;;1.10;;
9761;SDS011;4920;49.594;11.022;2023-01-15T14:35:19;2.20;;;1.40;;
9761;SDS011;4920;49.594;11.022;2023-01-15T14:37:50;3.37;;;1.47;;
9761;SDS011;4920;49.594;11.022;2023-01-15T14:40:21;3.37;;;1.40;;
9761;SDS011;4920;49.594;11.022;2023-01-15T14:45:48;2.57;;;1.10;;
9761;SDS011;4920;49.594;11.022;2023-01-15T14:48:19;1.97;;;1.20;;
9761;SDS011;4920;49.594;11.022;2023-01-15T14:51:10;1.40;;;1.10;;
9761;SDS011;4920;49.594;11.022;2023-01-15T14:53:42;1.53;;;1.07;;
9761;SDS011;4920;49.594;11.022;2023-01-15T14:56:17;1.73;;;1.10;;
9761;SDS011;4920;49.594;11.022;2023-01-15T14:58:50;1.33;;;1.10;;
9761;SDS011;4920;49.594;11.022;2023-01-15T15:01:35;1.70;;;1.30;;
9761;SDS011;4920;49.594;11.022;2023-01-15T15:04:11;3.20;;;1.47;;
9761;SDS011;4920;49.594;11.022;2023-01-15T15:06:48;1.83;;;1.30;;
9761;SDS011;4920;49.594;11.022;2023-01-15T15:09:28;1.40;;;1.30;;
9761;SDS011;4920;49.594;11.022;2023-01-15T15:14:56;2.77;;;1.50;;
9761;SDS011;4920;49.594;11.022;2023-01-15T15:17:32;2.43;;;1.50;;
9761;SDS011;4920;49.594;11.022;2023-01-15T15:20:14;2.60;;;1.60;;
9761;SDS011;4920;49.594;11.022;2023-01-15T15:22:50;2.63;;;1.70;;
9761;SDS011;4920;49.594;11.022;2023-01-15T15:25:22;3.63;;;2.00;;
9761;SDS011;4920;49.594;11.022;2023-01-15T15:28:01;4.40;;;1.90;;
9761;SDS011;4920;49.594;11.022;2023-01-15T15:30:32;5.33;;;2.00;;
9761;SDS011;4920;49.594;11.022;2023-01-15T15:33:03;6.20;;;1.90;;
9761;SDS011;4920;49.594;11.022;2023-01-15T15:35:32;4.30;;;2.20;;
9761;SDS011;4920;49.594;11.022;2023-01-15T15:38:04;7.07;;;1.77;;
9761;SDS011;4920;49.594;11.022;2023-01-15T15:40:34;3.07;;;1.40;;
9761;SDS011;4920;49.594;11.022;2023-01-15T15:43:09;4.80;;;1.60;;
9761;SDS011;4920;49.594;11.022;2023-01-15T15:45:58;3.93;;;1.47;;
9761;SDS011;4920;49.594;11.022;2023-01-15T15:48:59;3.67;;;1.50;;
9761;SDS011;4920;49.594;11.022;2023-01-15T15:51:32;3.80;;;1.63;;
9761;SDS011;4920;49.594;11.022;2023-01-15T15:54:08;6.27;;;1.77;;